Time;durP1;ratioP1;P1;durP2;ratioP2;P2;SDS_P1;SDS_P2;PMS_P1;PMS_P2;Temp;Humidity;BMP_temperature;BMP_pressure;BME280_temperature;BME280_humidity;BME280_pressure;Samples;Min_cycle;Max_cycle;Signal;HPM_P1;HPM_P2
2023/10/14 00:02:06;;;;;;;13.45;6.15;;;19.60;99.90;;;;;;4160693;28;20021;-66
2023/10/14 00:04:09;;;;;;;24.25;6.05;;;19.60;99.90;;;;;;4183694;28;20412;-66
2023/10/14 00:06:12;;;;;;;13.52;5.45;;;19.60;99.90;;;;;;4165254;28;20029;-66
2023/10/14 00:08:13;;;;;;;9.95;4.40;;;19.70;99.90;;;;;;4186432;28;20102;-66
2023/10/14 00:10:13;;;;;;;17.00;5.55;;;19.60;99.90;;;;;;4185212;28;20119;-66
2023/10/14 00:12:14;;;;;;;11.73;4.60;;;19.70;99.90;;;;;;4184124;28;20067;-79
2023/10/14 00:14:16;;;;;;;8.77;4.00;;;19.60;99.90;;;;;;4193509;28;20033;-79
2023/10/14 00:16:29;;;;;;;12.20;4.57;;;19.70;99.90;;;;;;4163336;28;21658;-80
2023/10/14 00:18:32;;;;;;;14.60;3.95;;;19.70;99.90;;;;;;4181936;28;20432;-80
2023/10/14 00:20:36;;;;;;;14.20;4.22;;;19.70;99.90;;;;;;4186522;28;20049;-79
2023/10/14 00:22:39;;;;;;;8.75;3.90;;;19.70;99.90;;;;;;4169697;28;20084;-79
2023/10/14 00:24:40;;;;;;;9.57;3.67;;;19.70;99.90;;;;;;4174741;28;20090;-80
2023/10/14 00:26:40;;;;;;;22.27;4.40;;;19.60;99.90;;;;;;4185467;28;20131;-79
2023/10/14 00:28:45;;;;;;;10.88;3.90;;;19.60;99.90;;;;;;4162721;28;20033;-79
2023/10/14 00:30:46;;;;;;;7.10;3.03;;;19.70;99.90;;;;;;4185348;28;20087;-79
2023/10/14 00:32:47;;;;;;;11.07;2.97;;;19.60;99.90;;;;;;4179699;28;20029;-80
2023/10/14 00:34:48;;;;;;;14.32;3.63;;;19.60;99.90;;;;;;4186627;28;20448;-79
2023/10/14 00:36:55;;;;;;;10.07;3.28;;;19.60;99.90;;;;;;4187708;28;20325;-80
2023/10/14 00:38:57;;;;;;;8.90;3.10;;;19.60;99.90;;;;;;4179539;28;20488;-80
2023/10/14 00:40:59;;;;;;;6.70;3.08;;;19.60;99.90;;;;;;4186351;28;20029;-80
2023/10/14 00:43:04;;;;;;;8.63;3.65;;;19.60;99.90;;;;;;4183408;28;20025;-79
2023/10/14 00:45:09;;;;;;;8.07;3.33;;;19.60;99.90;;;;;;4166967;28;20488;-80
2023/10/14 00:47:15;;;;;;;10.48;3.15;;;19.60;99.90;;;;;;4183993;28;20040;-81
2023/10/14 00:49:18;;;;;;;12.05;3.22;;;19.60;99.90;;;;;;4193568;28;20400;-84
2023/10/14 00:51:19;;;;;;;;;;;19.50;99.90;;;;;;4181536;28;20111;-80
2023/10/14 00:53:20;;;;;;;5.72;1.40;;;19.10;99.90;;;;;;4181669;28;19955;-84
2023/10/14 00:55:26;;;;;;;3.58;1.17;;;18.70;99.90;;;;;;4186541;28;20036;-84
2023/10/14 00:57:38;;;;;;;2.38;0.73;;;18.20;99.90;;;;;;4182338;28;20060;-83
2023/10/14 00:59:38;;;;;;;3.13;1.02;;;17.90;99.90;;;;;;4166873;28;20079;-82
2023/10/14 01:04:18;;;;;;;1.33;0.55;;;17.20;99.90;;;;;;4160235;28;20024;-80
2023/10/14 01:08:49;;;;;;;5.20;1.33;;;16.90;99.90;;;;;;4139813;28;20086;-80
2023/10/14 01:10:50;;;;;;;3.97;1.20;;;16.80;99.90;;;;;;4182845;28;20029;-80
2023/10/14 01:12:56;;;;;;;6.13;0.90;;;16.80;99.90;;;;;;4183252;28;20063;-80
2023/10/14 01:14:59;;;;;;;4.55;1.10;;;16.70;99.90;;;;;;4181859;28;20040;-80
2023/10/14 01:17:01;;;;;;;1.95;0.57;;;16.70;99.90;;;;;;4175037;28;20096;-80
2023/10/14 01:19:03;;;;;;;1.92;0.90;;;16.60;99.90;;;;;;4173759;28;20897;-80
2023/10/14 01:21:03;;;;;;;2.85;1.00;;;16.60;99.90;;;;;;4176594;28;20033;-80
2023/10/14 01:23:26;;;;;;;3.17;0.80;;;16.60;99.90;;;;;;4161015;28;20589;-68
2023/10/14 01:25:31;;;;;;;2.63;1.00;;;16.50;99.90;;;;;;4175340;28;20039;-67
2023/10/14 01:27:34;;;;;;;1.50;0.60;;;16.50;99.90;;;;;;4157861;28;20042;-67
2023/10/14 01:29:41;;;;;;;1.55;0.75;;;16.50;99.90;;;;;;4122910;28;20480;-67
2023/10/14 01:32:10;;;;;;;3.95;0.77;;;16.50;99.90;;;;;;4067808;28;20485;-68
2023/10/14 01:34:24;;;;;;;1.65;0.60;;;16.40;99.90;;;;;;4177025;28;20369;-67
2023/10/14 01:36:27;;;;;;;9.35;1.23;;;16.50;99.90;;;;;;4168845;28;20037;-67
2023/10/14 01:38:30;;;;;;;3.05;0.95;;;16.40;99.90;;;;;;4181160;28;20032;-67
2023/10/14 01:40:44;;;;;;;1.70;0.50;;;16.50;99.90;;;;;;4164299;28;20071;-68
2023/10/14 01:42:46;;;;;;;1.55;0.70;;;16.40;99.90;;;;;;4183476;28;20036;-67
2023/10/14 01:44:51;;;;;;;2.25;0.65;;;16.40;99.90;;;;;;4187077;28;20503;-67
2023/10/14 01:46:55;;;;;;;2.88;0.70;;;16.40;99.90;;;;;;4175657;28;20091;-67
2023/10/14 01:49:00;;;;;;;1.48;0.70;;;16.40;99.90;;;;;;4185652;28;20028;-67
2023/10/14 01:51:03;;;;;;;2.13;0.80;;;16.40;99.90;;;;;;4167592;28;20116;-68
2023/10/14 01:53:11;;;;;;;1.27;0.50;;;16.30;99.90;;;;;;4182966;28;20166;-67
2023/10/14 01:55:11;;;;;;;0.90;0.43;;;16.30;99.90;;;;;;4178073;28;20029;-68
2023/10/14 01:57:17;;;;;;;1.83;0.50;;;16.30;99.90;;;;;;4187055;28;20036;-67
2023/10/14 01:59:22;;;;;;;2.30;0.70;;;16.30;99.90;;;;;;4183080;28;20044;-68
2023/10/14 02:01:23;;;;;;;2.80;0.57;;;16.30;99.90;;;;;;4176456;28;20032;-67
2023/10/14 02:03:24;;;;;;;1.80;0.60;;;16.40;99.90;;;;;;4181868;28;20123;-67
2023/10/14 02:05:26;;;;;;;2.97;0.52;;;16.30;99.90;;;;;;4176893;28;20405;-67
2023/10/14 02:07:30;;;;;;;10.45;0.85;;;16.30;99.90;;;;;;4165645;28;20044;-67
2023/10/14 02:09:31;;;;;;;1.58;0.60;;;16.30;99.90;;;;;;4117299;28;20489;-67
2023/10/14 02:11:35;;;;;;;1.08;0.63;;;16.30;99.90;;;;;;4071193;28;20769;-67
2023/10/14 02:13:36;;;;;;;3.22;0.90;;;16.30;99.90;;;;;;4149323;28;20037;-67
2023/10/14 02:15:48;;;;;;;2.08;0.70;;;16.20;99.90;;;;;;4119919;28;20060;-67
2023/10/14 02:17:48;;;;;;;1.02;0.63;;;16.20;99.90;;;;;;4174818;28;20163;-67
2023/10/14 02:19:50;;;;;;;1.08;0.70;;;16.30;99.90;;;;;;4179959;28;20777;-71
2023/10/14 02:22:00;;;;;;;4.10;1.23;;;16.30;99.90;;;;;;4183809;28;20511;-67
2023/10/14 02:24:00;;;;;;;2.50;0.70;;;16.30;99.90;;;;;;4175425;28;20033;-67
2023/10/14 02:26:08;;;;;;;2.67;0.88;;;16.30;99.90;;;;;;4162605;28;20074;-67
2023/10/14 02:28:14;;;;;;;1.70;0.70;;;16.30;99.90;;;;;;4181994;28;20112;-67
2023/10/14 02:30:15;;;;;;;2.45;0.80;;;16.30;99.90;;;;;;4180606;28;20389;-67
2023/10/14 02:32:15;;;;;;;4.32;1.00;;;16.30;99.90;;;;;;4166579;28;20029;-70
2023/10/14 02:34:18;;;;;;;4.95;1.38;;;16.30;99.90;;;;;;4164443;28;20029;-70
2023/10/14 02:36:19;;;;;;;1.73;0.90;;;16.20;99.90;;;;;;4141862;28;20030;-70
2023/10/14 02:38:19;;;;;;;1.02;0.55;;;16.20;99.90;;;;;;4184119;28;20033;-70
2023/10/14 02:40:25;;;;;;;3.40;0.85;;;16.20;99.90;;;;;;4166041;28;20041;-71
2023/10/14 02:42:26;;;;;;;1.15;0.82;;;16.20;99.90;;;;;;4176646;28;20374;-71
2023/10/14 02:44:28;;;;;;;2.03;1.00;;;16.20;99.90;;;;;;4180365;28;20110;-71
2023/10/14 02:46:29;;;;;;;3.53;1.00;;;16.10;99.90;;;;;;4175078;28;20557;-70
2023/10/14 02:48:52;;;;;;;4.40;1.10;;;16.00;99.90;;;;;;4175151;28;20049;-70
2023/10/14 02:50:50;;;;;;;1.73;0.82;;;15.90;99.90;;;;;;4181890;28;21888;-70
2023/10/14 02:53:00;;;;;;;3.45;1.02;;;15.80;99.90;;;;;;4163104;28;20068;-70
2023/10/14 02:55:21;;;;;;;2.42;0.93;;;15.70;99.90;;;;;;4144147;28;20048;-69
2023/10/14 02:59:36;;;;;;;6.00;1.45;;;15.50;99.90;;;;;;4180947;28;20081;-69
2023/10/14 03:01:40;;;;;;;7.90;2.05;;;15.40;99.90;;;;;;4182180;28;20025;-69
2023/10/14 03:03:43;;;;;;;5.90;1.52;;;15.40;99.90;;;;;;4181678;28;20033;-69
2023/10/14 03:05:52;;;;;;;2.90;1.02;;;15.30;99.90;;;;;;4164201;28;20037;-69
2023/10/14 03:07:52;;;;;;;6.70;1.70;;;15.30;99.90;;;;;;4183553;28;20116;-69
2023/10/14 03:10:10;;;;;;;3.70;0.98;;;15.20;99.90;;;;;;4180871;28;20041;-69
2023/10/14 03:12:13;;;;;;;4.47;1.30;;;15.20;99.90;;;;;;4178314;28;20067;-69
2023/10/14 03:14:15;;;;;;;4.72;1.20;;;15.10;99.90;;;;;;4177992;28;20044;-69
2023/10/14 03:16:19;;;;;;;4.63;1.55;;;15.10;99.90;;;;;;4174835;28;20037;-69
2023/10/14 03:18:20;;;;;;;6.93;1.75;;;15.10;99.90;;;;;;4173642;28;20033;-70
2023/10/14 03:22:31;;;;;;;6.78;1.60;;;15.10;99.90;;;;;;4178877;28;20024;-68
2023/10/14 03:24:38;;;;;;;7.43;1.42;;;15.20;99.90;;;;;;4179579;28;20041;-69
2023/10/14 03:26:38;;;;;;;3.80;1.30;;;15.20;99.90;;;;;;4177527;28;20496;-68
2023/10/14 03:28:44;;;;;;;4.93;1.33;;;15.20;99.90;;;;;;4158153;28;20049;-68
2023/10/14 03:30:47;;;;;;;6.85;1.70;;;15.20;99.90;;;;;;4159647;28;20112;-68
2023/10/14 03:32:47;;;;;;;7.88;1.50;;;15.20;99.90;;;;;;4180032;28;20041;-68
2023/10/14 03:34:48;;;;;;;5.82;1.50;;;15.20;99.90;;;;;;4182508;28;20037;-68
2023/10/14 03:36:50;;;;;;;4.18;1.15;;;15.30;99.90;;;;;;4178838;28;20071;-68
2023/10/14 03:38:58;;;;;;;4.95;1.50;;;15.30;99.90;;;;;;4179056;28;20063;-69
2023/10/14 03:41:10;;;;;;;4.95;1.33;;;15.30;99.90;;;;;;4178911;28;20090;-68
2023/10/14 03:43:14;;;;;;;6.07;1.60;;;15.30;99.90;;;;;;4184883;28;20033;-75
2023/10/14 03:45:21;;;;;;;9.00;2.15;;;15.30;99.90;;;;;;4182388;28;20033;-75
2023/10/14 03:47:21;;;;;;;5.18;1.40;;;15.30;99.90;;;;;;4182897;28;20082;-74
2023/10/14 03:49:22;;;;;;;5.88;1.70;;;15.30;99.90;;;;;;4178484;28;20053;-73
2023/10/14 03:51:30;;;;;;;6.28;1.30;;;15.30;99.90;;;;;;4175076;28;20049;-74
2023/10/14 03:53:33;;;;;;;7.15;1.88;;;15.30;99.90;;;;;;4163829;28;20052;-75
2023/10/14 03:55:34;;;;;;;4.63;1.35;;;15.30;99.90;;;;;;4181261;28;20033;-76
2023/10/14 03:57:37;;;;;;;10.70;1.88;;;15.30;99.90;;;;;;4162314;28;20044;-73
2023/10/14 03:59:37;;;;;;;5.82;1.80;;;15.20;99.90;;;;;;4165183;28;20124;-74
2023/10/14 04:03:51;;;;;;;5.22;1.40;;;15.20;99.90;;;;;;4184321;28;20075;-74
2023/10/14 04:05:52;;;;;;;;;;;15.20;99.90;;;;;;4159734;28;20790;-74
2023/10/14 04:07:54;;;;;;;4.18;1.73;;;15.20;99.90;;;;;;4184309;28;19982;-73
2023/10/14 04:09:58;;;;;;;4.90;1.63;;;15.10;99.90;;;;;;4174220;28;20044;-75
2023/10/14 04:11:59;;;;;;;2.78;1.10;;;15.10;99.90;;;;;;4178325;28;20569;-74
2023/10/14 04:14:22;;;;;;;5.25;1.60;;;15.10;99.90;;;;;;4187665;28;20039;-74
2023/10/14 04:16:27;;;;;;;8.30;1.90;;;15.10;99.90;;;;;;4179654;28;20024;-73
2023/10/14 04:18:28;;;;;;;4.10;1.33;;;15.10;99.90;;;;;;4165764;28;20037;-73
2023/10/14 04:20:31;;;;;;;9.40;2.05;;;15.10;99.90;;;;;;4168270;28;20099;-75
2023/10/14 04:22:32;;;;;;;12.85;2.08;;;15.10;99.90;;;;;;4187789;28;20128;-75
2023/10/14 04:26:36;;;;;;;8.88;2.35;;;15.00;99.90;;;;;;4178516;28;20155;-74
2023/10/14 04:28:53;;;;;;;4.55;1.35;;;14.90;99.90;;;;;;4183409;28;20068;-73
2023/10/14 04:30:54;;;;;;;5.63;1.65;;;14.90;99.90;;;;;;4158912;28;20037;-73
2023/10/14 04:34:58;;;;;;;6.15;1.67;;;14.80;99.90;;;;;;4187264;28;20029;-72
2023/10/14 04:37:07;;;;;;;6.60;1.80;;;14.80;99.90;;;;;;4165596;28;20485;-73
2023/10/14 04:39:14;;;;;;;5.50;1.52;;;14.70;99.90;;;;;;4191172;28;20052;-74
2023/10/14 04:41:15;;;;;;;9.05;1.70;;;14.70;99.90;;;;;;4186550;28;20059;-74
2023/10/14 04:45:17;;;;;;;6.50;2.05;;;14.60;99.90;;;;;;4184631;28;20033;-74
2023/10/14 04:47:27;;;;;;;5.47;1.27;;;14.60;99.90;;;;;;4166386;28;20029;-74
2023/10/14 04:49:37;;;;;;;4.90;1.60;;;14.60;99.90;;;;;;4168910;28;20033;-74
2023/10/14 04:51:39;;;;;;;7.38;1.83;;;14.60;99.90;;;;;;4184344;28;20554;-73
2023/10/14 04:53:43;;;;;;;7.75;1.77;;;14.60;99.90;;;;;;4183712;28;20115;-72
2023/10/14 04:55:44;;;;;;;6.97;1.77;;;14.50;99.90;;;;;;4164552;28;20032;-72
2023/10/14 04:57:51;;;;;;;3.22;1.45;;;14.50;99.90;;;;;;4165718;28;20029;-72
2023/10/14 04:59:55;;;;;;;4.07;1.45;;;14.50;99.90;;;;;;4178520;28;20040;-71
2023/10/14 05:01:56;;;;;;;5.78;1.60;;;14.50;99.90;;;;;;4176633;28;20063;-72
2023/10/14 05:03:58;;;;;;;4.53;1.63;;;14.50;99.90;;;;;;4167169;28;20025;-72
2023/10/14 05:06:14;;;;;;;4.15;1.63;;;14.50;99.90;;;;;;4182476;28;20033;-72
2023/10/14 05:08:21;;;;;;;6.97;2.10;;;14.50;99.90;;;;;;4182202;28;20025;-72
2023/10/14 05:10:25;;;;;;;7.00;2.00;;;14.50;99.90;;;;;;4185352;28;20039;-72
2023/10/14 05:12:25;;;;;;;8.88;2.40;;;14.50;99.90;;;;;;4158238;28;20064;-72
2023/10/14 05:14:38;;;;;;;9.23;2.10;;;14.50;99.90;;;;;;4161085;28;20029;-72
2023/10/14 05:16:58;;;;;;;8.32;2.47;;;14.40;99.90;;;;;;4178565;28;20468;-72
2023/10/14 05:19:00;;;;;;;7.88;2.17;;;14.40;99.90;;;;;;4186468;28;20029;-73
2023/10/14 05:21:12;;;;;;;7.40;1.60;;;14.40;99.90;;;;;;4165373;28;20033;-72
2023/10/14 05:23:19;;;;;;;7.50;2.20;;;14.40;99.90;;;;;;4183361;28;20028;-72
2023/10/14 05:25:27;;;;;;;7.55;1.58;;;14.40;99.90;;;;;;4159569;28;20461;-73
2023/10/14 05:27:35;;;;;;;3.83;1.52;;;14.40;99.90;;;;;;4114564;28;20046;-73
2023/10/14 05:29:36;;;;;;;5.38;1.45;;;14.30;99.90;;;;;;4168678;28;20033;-73
2023/10/14 05:31:37;;;;;;;8.32;1.80;;;14.30;99.90;;;;;;4142229;28;20512;-73
2023/10/14 05:33:38;;;;;;;7.97;2.17;;;14.20;99.90;;;;;;4175086;28;20033;-72
2023/10/14 05:35:42;;;;;;;8.43;1.80;;;14.20;99.90;;;;;;4179905;28;20033;-73
2023/10/14 05:37:45;;;;;;;7.22;1.60;;;14.20;99.90;;;;;;4174756;28;20037;-72
2023/10/14 05:39:45;;;;;;;11.00;1.98;;;14.20;99.90;;;;;;4169705;28;20579;-72
2023/10/14 05:41:48;;;;;;;9.90;2.25;;;14.20;99.90;;;;;;4177736;28;20101;-72
2023/10/14 05:43:51;;;;;;;5.82;1.80;;;14.20;99.90;;;;;;4148503;28;20113;-72
2023/10/14 05:45:52;;;;;;;;;;;14.10;99.90;;;;;;4176147;28;20079;-71
2023/10/14 05:47:53;;;;;;;10.23;1.92;;;14.10;99.90;;;;;;4176488;28;19913;-71
2023/10/14 05:49:54;;;;;;;7.40;1.50;;;14.10;99.90;;;;;;4177790;28;20814;-72
2023/10/14 05:51:54;;;;;;;5.15;1.95;;;14.00;99.90;;;;;;4175986;28;20049;-72
2023/10/14 05:53:56;;;;;;;10.90;2.50;;;14.00;99.90;;;;;;4175026;28;20044;-72
2023/10/14 05:56:12;;;;;;;9.95;1.98;;;14.00;99.90;;;;;;4157723;28;20034;-72
2023/10/14 05:58:13;;;;;;;4.30;1.40;;;14.00;99.90;;;;;;4175877;28;20036;-71
2023/10/14 06:00:21;;;;;;;9.63;2.45;;;13.90;99.90;;;;;;4180752;28;20029;-72
2023/10/14 06:02:22;;;;;;;10.05;1.88;;;13.90;99.90;;;;;;4177368;28;20049;-70
2023/10/14 06:04:22;;;;;;;4.60;1.35;;;13.90;99.90;;;;;;4175143;28;20120;-73
2023/10/14 06:06:23;;;;;;;4.05;1.85;;;13.90;99.90;;;;;;4156877;28;20136;-72
2023/10/14 06:08:24;;;;;;;4.68;1.50;;;13.90;99.90;;;;;;4173818;28;20025;-72
2023/10/14 06:10:24;;;;;;;5.82;1.45;;;13.80;99.90;;;;;;4177755;28;20069;-72
2023/10/14 06:12:25;;;;;;;6.68;1.55;;;13.90;99.90;;;;;;4179797;28;20037;-74
2023/10/14 06:14:25;;;;;;;9.65;1.73;;;13.80;99.90;;;;;;4180237;28;20397;-72
2023/10/14 06:16:28;;;;;;;10.25;1.80;;;13.80;99.90;;;;;;4171527;28;20036;-72
2023/10/14 06:18:29;;;;;;;;;;;13.80;99.90;;;;;;4171073;28;20068;-72
2023/10/14 06:20:32;;;;;;;7.38;1.85;;;13.80;99.90;;;;;;4157688;28;20000;-72
2023/10/14 06:22:32;;;;;;;;;;;13.80;99.90;;;;;;4168425;28;20044;-74
2023/10/14 06:24:34;;;;;;;7.97;2.33;;;13.80;99.90;;;;;;4183250;28;19908;-75
2023/10/14 06:26:34;;;;;;;9.25;2.13;;;13.80;99.90;;;;;;4180177;28;20600;-74
2023/10/14 06:28:37;;;;;;;6.63;2.00;;;13.80;99.90;;;;;;4172992;28;20037;-69
2023/10/14 06:30:38;;;;;;;7.97;2.15;;;13.80;99.90;;;;;;4153899;28;20087;-69
2023/10/14 06:32:38;;;;;;;7.00;2.03;;;13.80;99.90;;;;;;4170322;28;20417;-70
2023/10/14 06:34:39;;;;;;;7.53;2.35;;;13.70;99.90;;;;;;4172635;28;20128;-69
2023/10/14 06:36:47;;;;;;;6.60;1.77;;;13.80;99.90;;;;;;4169213;28;20050;-70
2023/10/14 06:38:48;;;;;;;10.32;1.90;;;13.80;99.90;;;;;;4169808;28;20041;-70
2023/10/14 06:40:55;;;;;;;7.13;2.00;;;13.90;99.90;;;;;;4166242;28;20382;-70
2023/10/14 06:42:55;;;;;;;8.48;2.03;;;14.10;99.90;;;;;;4160825;28;20041;-69
2023/10/14 06:44:57;;;;;;;9.07;1.80;;;14.20;99.90;;;;;;4165717;28;20032;-70
2023/10/14 06:46:59;;;;;;;13.70;2.05;;;14.10;99.90;;;;;;4149344;28;20766;-70
2023/10/14 06:49:00;;;;;;;6.55;1.65;;;14.10;99.90;;;;;;4167288;28;20029;-70
2023/10/14 06:51:01;;;;;;;4.28;1.50;;;14.10;99.90;;;;;;4166083;28;20043;-70
2023/10/14 06:53:07;;;;;;;7.20;2.30;;;14.10;99.90;;;;;;4165035;28;20553;-69
2023/10/14 06:55:08;;;;;;;6.78;1.95;;;14.20;99.90;;;;;;4152929;28;20548;-70
2023/10/14 06:57:08;;;;;;;7.30;1.80;;;14.30;99.90;;;;;;4168125;28;20112;-69
2023/10/14 06:59:13;;;;;;;6.95;2.28;;;14.40;99.90;;;;;;4167588;28;20598;-69
2023/10/14 07:01:13;;;;;;;6.93;2.10;;;14.80;99.90;;;;;;4166164;28;20029;-70
2023/10/14 07:03:15;;;;;;;11.73;2.17;;;15.00;99.90;;;;;;4148951;28;20492;-69
2023/10/14 07:05:18;;;;;;;5.82;1.98;;;15.30;99.90;;;;;;4158296;28;20174;-69
2023/10/14 07:07:19;;;;;;;12.35;2.17;;;15.60;99.90;;;;;;4153142;28;20060;-70
2023/10/14 07:09:23;;;;;;;9.25;1.63;;;15.80;99.90;;;;;;4156893;28;20030;-69
2023/10/14 07:11:24;;;;;;;8.77;2.53;;;16.00;99.90;;;;;;4172943;28;20065;-70
2023/10/14 07:13:24;;;;;;;8.18;2.00;;;16.00;99.90;;;;;;4170127;28;20083;-70
2023/10/14 07:15:25;;;;;;;13.10;2.45;;;16.30;99.90;;;;;;4169103;28;21145;-69
2023/10/14 07:17:28;;;;;;;10.35;2.10;;;16.30;99.90;;;;;;4169541;28;20503;-69
2023/10/14 07:19:29;;;;;;;;;;;16.50;99.90;;;;;;4174314;28;20456;-69
2023/10/14 07:21:29;;;;;;;8.93;2.33;;;16.60;99.90;;;;;;4174104;28;19912;-69
2023/10/14 07:23:34;;;;;;;8.43;1.80;;;16.70;99.90;;;;;;4170461;28;20090;-69
2023/10/14 07:25:39;;;;;;;3.47;1.50;;;16.90;99.90;;;;;;4174373;28;20665;-69
2023/10/14 07:27:40;;;;;;;8.82;1.90;;;16.90;99.90;;;;;;4168507;28;20621;-69
2023/10/14 07:29:45;;;;;;;8.75;1.88;;;17.20;99.90;;;;;;4173303;28;20034;-69
2023/10/14 07:31:46;;;;;;;5.95;1.73;;;17.50;99.90;;;;;;4171891;28;20103;-69
2023/10/14 07:33:48;;;;;;;4.67;1.70;;;17.70;99.90;;;;;;4171726;28;20049;-69
2023/10/14 07:35:48;;;;;;;7.15;1.90;;;17.90;99.90;;;;;;4161713;28;20044;-70
2023/10/14 07:37:50;;;;;;;6.63;1.70;;;17.70;99.90;;;;;;4171996;28;20818;-69
2023/10/14 07:39:53;;;;;;;8.40;1.98;;;17.40;99.90;;;;;;4172001;28;20436;-70
2023/10/14 07:41:54;;;;;;;4.32;1.67;;;17.50;99.90;;;;;;4149453;28;20044;-70
2023/10/14 07:43:54;;;;;;;9.73;2.22;;;17.50;99.90;;;;;;4169380;28;20360;-70
2023/10/14 07:45:58;;;;;;;5.20;1.70;;;17.50;99.90;;;;;;4169017;28;20029;-70
2023/10/14 07:47:59;;;;;;;6.97;1.85;;;17.60;99.90;;;;;;4170782;28;20119;-69
2023/10/14 07:50:00;;;;;;;6.95;1.70;;;17.70;99.90;;;;;;4167983;28;20033;-70
2023/10/14 07:52:01;;;;;;;9.40;1.83;;;17.90;99.90;;;;;;4170158;28;20597;-70
2023/10/14 07:54:02;;;;;;;6.35;2.08;;;18.00;99.90;;;;;;4171938;28;20021;-69
2023/10/14 07:56:05;;;;;;;7.82;2.03;;;18.20;99.90;;;;;;4166842;28;20382;-69
2023/10/14 07:58:10;;;;;;;7.80;1.73;;;18.40;99.90;;;;;;4155333;28;20040;-70
2023/10/14 08:00:12;;;;;;;6.97;2.08;;;18.50;99.90;;;;;;4150424;28;20041;-70
2023/10/14 08:02:18;;;;;;;6.03;1.60;;;18.40;99.90;;;;;;4150826;28;20045;-69
2023/10/14 08:04:20;;;;;;;8.10;1.83;;;18.20;99.90;;;;;;4167172;28;20052;-69
2023/10/14 08:06:21;;;;;;;10.02;2.75;;;18.00;99.90;;;;;;4168896;28;20109;-70
2023/10/14 08:08:22;;;;;;;6.32;1.80;;;17.70;99.90;;;;;;4169232;28;20056;-70
2023/10/14 08:10:23;;;;;;;7.60;2.20;;;17.50;99.90;;;;;;4166119;28;20048;-70
2023/10/14 08:12:28;;;;;;;6.72;1.98;;;17.50;99.90;;;;;;4169615;28;20101;-70
2023/10/14 08:14:30;;;;;;;8.38;2.40;;;17.40;99.90;;;;;;4151930;28;20486;-70
2023/10/14 08:16:31;;;;;;;7.10;1.98;;;17.20;99.90;;;;;;4169754;28;20725;-70
2023/10/14 08:18:32;;;;;;;7.35;1.60;;;17.10;99.90;;;;;;4169130;28;20036;-69
2023/10/14 08:20:34;;;;;;;7.22;1.88;;;17.20;99.90;;;;;;4170637;28;20091;-70
2023/10/14 08:22:35;;;;;;;6.82;2.22;;;17.20;99.90;;;;;;4167917;28;20044;-69
2023/10/14 08:24:38;;;;;;;6.10;1.60;;;17.20;99.90;;;;;;4137675;28;20503;-69
2023/10/14 08:26:40;;;;;;;6.88;2.05;;;17.20;99.90;;;;;;4169447;28;20037;-69
2023/10/14 08:28:42;;;;;;;8.00;2.20;;;17.30;99.90;;;;;;4172110;28;20580;-70
2023/10/14 08:30:45;;;;;;;6.18;2.05;;;17.30;99.90;;;;;;4151142;28;20076;-69
2023/10/14 08:32:49;;;;;;;11.02;2.28;;;17.30;99.90;;;;;;4170583;28;21103;-69
2023/10/14 08:34:49;;;;;;;6.10;2.00;;;17.50;99.90;;;;;;4170552;28;20136;-69
2023/10/14 08:36:50;;;;;;;9.68;2.33;;;17.50;99.90;;;;;;4170153;28;20064;-69
2023/10/14 08:38:50;;;;;;;7.32;2.10;;;17.50;99.90;;;;;;4150489;28;20026;-69
2023/10/14 08:40:52;;;;;;;8.05;2.03;;;17.60;99.90;;;;;;4168292;28;20034;-69
2023/10/14 08:42:57;;;;;;;13.07;2.95;;;17.60;99.90;;;;;;4166724;28;20060;-70
2023/10/14 08:45:00;;;;;;;8.55;2.22;;;17.60;99.90;;;;;;4155133;28;20648;-70
2023/10/14 08:47:13;;;;;;;6.68;2.05;;;17.60;99.90;;;;;;4168393;28;20132;-69
2023/10/14 08:49:13;;;;;;;;;;;17.70;99.90;;;;;;4170758;28;20504;-69
2023/10/14 08:51:15;;;;;;;8.32;2.35;;;17.70;99.90;;;;;;4170258;28;19910;-69
2023/10/14 08:53:16;;;;;;;13.98;2.40;;;17.70;99.90;;;;;;4169036;28;20037;-70
2023/10/14 08:55:20;;;;;;;7.13;2.47;;;17.50;99.90;;;;;;4168224;28;20029;-69
2023/10/14 08:57:22;;;;;;;8.25;2.40;;;17.60;99.90;;;;;;4169441;28;20104;-70
2023/10/14 08:59:23;;;;;;;8.57;2.08;;;17.60;99.90;;;;;;4168403;28;20458;-69
2023/10/14 09:01:24;;;;;;;5.28;2.05;;;17.60;99.90;;;;;;4170059;28;20034;-70
2023/10/14 09:03:25;;;;;;;8.30;2.35;;;17.60;99.90;;;;;;4171115;28;20562;-69
2023/10/14 09:05:26;;;;;;;8.77;2.15;;;17.60;99.90;;;;;;4165105;28;20036;-69
2023/10/14 09:07:27;;;;;;;8.65;2.58;;;17.60;99.90;;;;;;4170463;28;20076;-70
2023/10/14 09:09:29;;;;;;;9.27;1.80;;;17.70;99.90;;;;;;4168513;28;20033;-69
2023/10/14 09:11:33;;;;;;;7.93;2.67;;;17.60;99.90;;;;;;4150064;28;20567;-69
2023/10/14 09:13:37;;;;;;;8.52;2.22;;;17.60;99.90;;;;;;4170738;28;20045;-69
2023/10/14 09:15:40;;;;;;;9.18;2.75;;;17.60;99.90;;;;;;4169083;28;20044;-69
2023/10/14 09:17:41;;;;;;;11.80;2.88;;;17.50;99.90;;;;;;4165438;28;20724;-69
2023/10/14 09:19:48;;;;;;;7.05;2.13;;;17.50;99.90;;;;;;4168344;28;20029;-69
2023/10/14 09:21:49;;;;;;;12.73;2.40;;;17.50;99.90;;;;;;4154704;28;20123;-69
2023/10/14 09:23:51;;;;;;;10.13;2.22;;;17.50;99.90;;;;;;4170706;28;20037;-69
2023/10/14 09:25:55;;;;;;;9.65;2.10;;;17.50;99.90;;;;;;4161282;28;20048;-69
2023/10/14 09:27:56;;;;;;;10.00;2.53;;;17.40;99.90;;;;;;4169848;28;20033;-69
2023/10/14 09:29:59;;;;;;;8.15;1.90;;;17.50;99.90;;;;;;4166924;28;20034;-69
2023/10/14 09:32:00;;;;;;;7.35;1.95;;;17.50;99.90;;;;;;4165932;28;20130;-69
2023/10/14 09:34:01;;;;;;;10.75;2.00;;;17.50;99.90;;;;;;4167216;28;20036;-69
2023/10/14 09:36:05;;;;;;;6.75;1.80;;;17.60;99.90;;;;;;4168850;28;20033;-69
2023/10/14 09:38:08;;;;;;;7.68;2.05;;;17.60;99.90;;;;;;4166445;28;20041;-69
2023/10/14 09:40:13;;;;;;;8.30;2.08;;;17.70;99.90;;;;;;4169653;28;20037;-70
2023/10/14 09:42:15;;;;;;;9.82;2.88;;;17.80;99.90;;;;;;4164454;28;20036;-69
2023/10/14 09:44:17;;;;;;;10.10;2.53;;;17.80;99.90;;;;;;4168471;28;20603;-69
2023/10/14 09:46:20;;;;;;;6.90;2.38;;;17.80;99.90;;;;;;4169009;28;20115;-70
2023/10/14 09:48:23;;;;;;;7.93;2.10;;;17.80;99.90;;;;;;4149410;28;20034;-68
2023/10/14 09:50:25;;;;;;;10.10;2.03;;;17.90;99.90;;;;;;4167908;28;20037;-69
2023/10/14 09:52:26;;;;;;;7.97;2.05;;;17.80;99.90;;;;;;4170545;28;20726;-69
2023/10/14 09:54:29;;;;;;;9.20;2.58;;;17.70;99.90;;;;;;4168292;28;20061;-69
2023/10/14 09:56:32;;;;;;;8.77;2.65;;;17.70;99.90;;;;;;4167512;28;20131;-69
2023/10/14 09:58:34;;;;;;;10.32;1.70;;;17.70;99.90;;;;;;4171257;28;20033;-69
2023/10/14 10:00:36;;;;;;;9.80;2.30;;;17.70;99.90;;;;;;4169205;28;20029;-69
2023/10/14 10:02:40;;;;;;;8.90;2.67;;;17.70;99.90;;;;;;4168187;28;20497;-69
2023/10/14 10:04:45;;;;;;;6.32;2.15;;;17.70;99.90;;;;;;4168246;28;20120;-69
2023/10/14 10:07:15;;;;;;;8.52;2.25;;;17.80;99.90;;;;;;4167108;28;20104;-69
2023/10/14 10:09:40;;;;;;;9.88;2.00;;;17.80;99.90;;;;;;4166624;28;20152;-69
2023/10/14 10:11:41;;;;;;;14.45;2.67;;;17.70;99.90;;;;;;4150100;28;20106;-69
2023/10/14 10:13:42;;;;;;;7.20;2.00;;;17.60;99.90;;;;;;4169510;28;20049;-69
2023/10/14 10:15:45;;;;;;;9.10;1.95;;;17.60;99.90;;;;;;4168957;28;20041;-69
2023/10/14 10:18:12;;;;;;;8.98;2.15;;;17.50;99.90;;;;;;4166052;28;20041;-69
2023/10/14 10:20:16;;;;;;;9.85;2.30;;;17.50;99.90;;;;;;4151337;28;20554;-68
2023/10/14 10:22:17;;;;;;;6.93;1.83;;;17.40;99.90;;;;;;4171073;28;20044;-69
2023/10/14 10:24:23;;;;;;;12.07;2.50;;;17.50;99.90;;;;;;4165578;28;20528;-69
2023/10/14 10:26:24;;;;;;;5.82;2.20;;;17.50;99.90;;;;;;4166720;28;20062;-69
2023/10/14 10:28:27;;;;;;;6.50;1.85;;;17.40;99.90;;;;;;4147649;28;20053;-69
2023/10/14 10:30:28;;;;;;;7.13;2.35;;;17.40;99.90;;;;;;4169422;28;20401;-69
2023/10/14 10:32:33;;;;;;;8.88;2.00;;;17.40;99.90;;;;;;4169116;28;20045;-69
2023/10/14 10:34:54;;;;;;;8.07;1.92;;;17.40;99.90;;;;;;4171664;28;20068;-69
2023/10/14 10:36:55;;;;;;;7.60;2.03;;;17.40;99.90;;;;;;4167078;28;20408;-69
2023/10/14 10:39:15;;;;;;;7.18;2.10;;;17.30;99.90;;;;;;4167138;28;20119;-69
2023/10/14 10:41:27;;;;;;;8.80;2.15;;;17.40;99.90;;;;;;4163949;28;20044;-69
2023/10/14 10:43:30;;;;;;;10.30;2.58;;;17.20;99.90;;;;;;4166511;28;20042;-69
2023/10/14 10:45:40;;;;;;;11.23;1.88;;;17.20;99.90;;;;;;4165264;28;20682;-69
2023/10/14 10:47:45;;;;;;;11.10;2.45;;;17.30;99.90;;;;;;4168674;28;20038;-69
2023/10/14 10:49:49;;;;;;;8.93;2.03;;;17.20;99.90;;;;;;4166194;28;20041;-69
2023/10/14 10:52:12;;;;;;;6.80;2.13;;;17.10;99.90;;;;;;4168753;28;20088;-69
2023/10/14 10:54:16;;;;;;;6.90;2.17;;;17.00;99.90;;;;;;4167291;28;20053;-69
2023/10/14 10:56:19;;;;;;;;;;;16.90;99.90;;;;;;4168139;28;20041;-69
2023/10/14 10:58:20;;;;;;;5.57;1.45;;;16.90;99.90;;;;;;4171073;28;19913;-70
2023/10/14 11:00:22;;;;;;;10.98;2.30;;;16.90;99.90;;;;;;4168364;28;20093;-70
2023/10/14 11:02:23;;;;;;;8.27;1.97;;;16.90;99.90;;;;;;4169598;28;20041;-72
2023/10/14 11:04:24;;;;;;;5.90;2.08;;;16.90;99.90;;;;;;4165294;28;20120;-68